Time;durP1;ratioP1;P1;durP2;ratioP2;P2;SDS_P1;SDS_P2;PMS_P1;PMS_P2;Temp;Humidity;BMP_temperature;BMP_pressure;BME280_temperature;BME280_humidity;BME280_pressure;Samples;Min_cycle;Max_cycle;Signal;HPM_P1;HPM_P2
2022/07/26 00:00:11;;;;;;;3.63;1.93;;;20.50;95.70;;;21.42;90.91;97945.78;5055762;28;20497;-78
2022/07/26 00:02:40;;;;;;;2.53;1.80;;;20.50;95.60;;;21.34;92.00;97952.41;5056439;28;20456;-78
2022/07/26 00:05:16;;;;;;;3.40;2.40;;;20.40;95.90;;;21.34;91.58;97957.72;5057108;28;20464;-78
2022/07/26 00:07:45;;;;;;;5.57;2.03;;;20.40;96.00;;;21.34;91.59;97954.25;5053641;28;20581;-78
2022/07/26 00:10:15;;;;;;;2.33;1.60;;;20.40;95.90;;;21.25;92.11;97953.94;5055726;28;20552;-78
2022/07/26 00:12:44;;;;;;;4.80;1.90;;;20.30;96.00;;;21.17;92.45;97946.47;5055775;28;20460;-78
2022/07/26 00:15:13;;;;;;;3.20;1.80;;;20.20;95.80;;;21.12;93.08;97957.06;5059101;28;20498;-78
2022/07/26 00:17:41;;;;;;;12.53;1.93;;;20.20;96.00;;;21.11;93.32;97950.13;5056676;28;20461;-78
2022/07/26 00:20:11;;;;;;;3.27;1.90;;;20.20;96.10;;;21.03;93.64;97959.34;5056990;28;20967;-78
2022/07/26 00:22:40;;;;;;;2.87;1.97;;;20.10;96.10;;;21.07;93.81;97955.13;5057506;28;20540;-78
2022/07/26 00:25:10;;;;;;;3.70;2.00;;;20.00;96.10;;;21.05;93.98;97961.75;5057931;28;20473;-78
2022/07/26 00:27:38;;;;;;;3.00;2.07;;;20.00;96.30;;;20.97;94.53;97956.91;5059093;28;20492;-78
2022/07/26 00:30:11;;;;;;;7.23;1.80;;;19.90;96.40;;;20.87;94.94;97959.50;5060460;28;20460;-78
2022/07/26 00:32:40;;;;;;;3.00;2.10;;;19.90;96.40;;;20.83;95.57;97963.72;5061823;28;20503;-78
2022/07/26 00:35:10;;;;;;;3.10;1.97;;;19.90;96.40;;;20.76;96.42;97968.44;5062044;28;20908;-78
2022/07/26 00:37:38;;;;;;;5.70;1.90;;;19.70;96.70;;;20.66;97.01;97957.75;5062227;28;20449;-78
2022/07/26 00:40:09;;;;;;;2.07;1.60;;;19.70;96.70;;;20.65;97.54;97974.75;5059569;28;21431;-78
2022/07/26 00:42:38;;;;;;;3.03;1.80;;;19.60;96.80;;;20.62;97.15;97969.97;5061266;28;20472;-78
2022/07/26 00:45:11;;;;;;;5.60;2.30;;;19.60;96.60;;;20.62;96.83;97972.63;5060727;28;21087;-78
2022/07/26 00:47:39;;;;;;;2.37;1.73;;;19.70;96.60;;;20.56;97.52;97982.38;5060932;28;20560;-78
2022/07/26 00:50:14;;;;;;;3.40;1.93;;;19.60;96.70;;;20.54;98.38;97980.00;5061404;28;20476;-78
2022/07/26 00:52:43;;;;;;;2.73;1.50;;;19.50;97.00;;;20.57;97.03;97992.78;5059683;28;20573;-78
2022/07/26 00:58:00;;;;;;;2.73;1.90;;;19.50;96.90;;;20.57;97.69;97997.28;5053968;28;20488;-77
2022/07/26 01:00:30;;;;;;;2.10;1.80;;;19.50;96.90;;;20.49;97.93;97998.53;5063427;28;20555;-78
2022/07/26 01:03:00;;;;;;;3.47;1.80;;;19.40;97.00;;;20.38;98.87;97990.69;5062640;28;20544;-78
2022/07/26 01:05:29;;;;;;;1.73;1.60;;;19.30;97.10;;;20.33;99.94;98006.59;5058199;28;20519;-78
2022/07/26 01:07:59;;;;;;;5.90;2.00;;;19.30;97.40;;;20.31;99.28;97998.88;5059126;28;20492;-78
2022/07/26 01:10:28;;;;;;;4.30;2.10;;;19.30;96.90;;;20.25;99.74;97999.84;5061363;28;20525;-77
2022/07/26 01:12:56;;;;;;;4.00;2.03;;;19.30;97.20;;;20.28;99.99;97993.25;5061709;28;20524;-78
2022/07/26 01:15:25;;;;;;;2.20;1.70;;;19.20;97.20;;;20.25;99.84;97989.22;5059867;28;20461;-78
2022/07/26 01:17:55;;;;;;;3.97;2.00;;;19.20;97.30;;;20.20;100.00;97997.13;5059036;28;20529;-78
2022/07/26 01:20:25;;;;;;;4.40;2.40;;;19.10;97.40;;;20.13;100.00;97985.94;5057626;28;20463;-78
2022/07/26 01:22:55;;;;;;;3.03;1.73;;;19.20;97.30;;;19.99;100.00;97990.78;5059869;28;20464;-78
2022/07/26 01:25:32;;;;;;;2.43;2.23;;;19.10;97.30;;;20.03;100.00;97994.56;5061664;28;20459;-78
2022/07/26 01:28:13;;;;;;;12.47;2.00;;;19.00;97.70;;;20.09;100.00;98001.56;5060677;28;20480;-78
2022/07/26 01:30:48;;;;;;;3.80;1.93;;;19.00;97.60;;;20.02;100.00;98000.94;5062409;28;20963;-78
2022/07/26 01:33:17;;;;;;;3.73;2.27;;;18.90;97.80;;;19.91;100.00;98006.38;5060618;28;20474;-78
2022/07/26 01:35:46;;;;;;;3.70;1.57;;;18.90;97.80;;;19.91;100.00;98006.38;5060926;28;20465;-78
2022/07/26 01:38:16;;;;;;;4.93;2.10;;;18.90;97.90;;;19.88;100.00;98001.56;5061012;28;20521;-78
2022/07/26 01:40:45;;;;;;;3.53;1.83;;;18.90;97.60;;;19.84;100.00;98003.09;5058656;28;21024;-77
2022/07/26 01:43:13;;;;;;;1.97;1.60;;;18.80;97.80;;;19.75;100.00;98001.94;5059441;28;20525;-78
2022/07/26 01:45:44;;;;;;;2.60;1.97;;;18.80;97.70;;;19.71;100.00;98008.78;5057478;28;20472;-78
2022/07/26 01:48:12;;;;;;;2.53;1.73;;;18.70;98.00;;;19.70;100.00;98010.63;5056272;28;20485;-78
2022/07/26 01:50:42;;;;;;;4.63;2.40;;;18.70;97.80;;;19.63;100.00;98009.19;5059802;28;20469;-78
2022/07/26 01:53:12;;;;;;;2.83;1.70;;;18.70;98.00;;;19.51;100.00;98004.78;5055238;28;20534;-78
2022/07/26 01:55:42;;;;;;;6.47;2.40;;;18.60;97.80;;;19.44;100.00;98017.44;5058730;28;20467;-77
2022/07/26 01:58:11;;;;;;;3.83;1.90;;;18.50;98.10;;;19.50;100.00;98008.53;5059794;28;20517;-78
2022/07/26 02:00:40;;;;;;;3.90;2.17;;;18.50;98.10;;;19.41;100.00;98017.91;5058546;28;20461;-78
2022/07/26 02:03:09;;;;;;;2.40;1.83;;;18.50;97.90;;;19.44;100.00;98019.28;5057842;28;20483;-78
2022/07/26 02:05:37;;;;;;;4.23;2.17;;;18.60;97.90;;;19.46;100.00;98014.56;5057671;28;20469;-78
2022/07/26 02:08:06;;;;;;;4.23;2.00;;;18.50;98.10;;;19.33;100.00;98014.88;5056621;28;21003;-78
2022/07/26 02:13:25;;;;;;;3.90;1.80;;;18.30;98.30;;;19.28;100.00;98014.78;5058363;28;20472;-78
2022/07/26 02:15:57;;;;;;;2.30;1.90;;;18.30;98.40;;;19.33;100.00;98025.47;5057181;28;20975;-78
2022/07/26 02:18:27;;;;;;;2.20;1.90;;;18.30;98.40;;;19.33;100.00;98022.81;5059417;28;20505;-78
2022/07/26 02:20:57;;;;;;;4.37;1.90;;;18.30;98.30;;;19.28;100.00;98034.16;5058486;28;20503;-78
2022/07/26 02:23:29;;;;;;;4.27;1.70;;;18.30;98.40;;;19.23;100.00;98039.38;5058158;28;21340;-78
2022/07/26 02:25:57;;;;;;;3.30;1.90;;;18.30;98.30;;;19.18;100.00;98035.84;5059671;28;20457;-78
2022/07/26 02:28:28;;;;;;;4.13;2.13;;;18.30;98.30;;;19.09;100.00;98038.09;5059864;28;20488;-78
2022/07/26 02:30:57;;;;;;;3.17;2.33;;;18.20;98.50;;;19.08;100.00;98032.00;5057261;28;20465;-78
2022/07/26 02:33:26;;;;;;;5.43;2.07;;;18.10;98.70;;;19.13;100.00;98033.09;5059392;28;20512;-78
2022/07/26 02:35:56;;;;;;;7.10;2.30;;;18.10;98.70;;;19.14;100.00;98034.72;5058006;28;20457;-78
2022/07/26 02:38:25;;;;;;;5.70;2.33;;;18.10;98.70;;;19.08;100.00;98039.97;5060064;28;20468;-78
2022/07/26 02:40:54;;;;;;;7.63;1.80;;;18.10;98.60;;;18.99;100.00;98043.22;5057576;28;20457;-78
2022/07/26 02:43:22;;;;;;;4.47;1.93;;;18.00;98.80;;;19.04;100.00;98040.66;5059711;28;20457;-78
2022/07/26 02:45:53;;;;;;;4.53;2.40;;;18.10;98.70;;;19.10;100.00;98042.34;5056965;28;20480;-78
2022/07/26 02:48:30;;;;;;;5.37;2.10;;;18.00;98.70;;;19.04;100.00;98045.97;5060143;28;20879;-77
2022/07/26 02:50:59;;;;;;;2.87;1.83;;;18.00;98.70;;;18.98;100.00;98045.09;5060448;28;20461;-78
2022/07/26 02:53:30;;;;;;;4.63;1.83;;;18.00;98.70;;;18.99;100.00;98053.81;5060231;28;21057;-78
2022/07/26 02:55:59;;;;;;;4.90;2.10;;;18.00;98.80;;;19.00;100.00;98052.78;5061825;28;20485;-78
2022/07/26 02:58:27;;;;;;;12.67;2.30;;;18.00;98.70;;;18.98;100.00;98047.75;5059378;28;20604;-77
2022/07/26 03:00:58;;;;;;;2.60;2.00;;;18.00;98.80;;;18.94;100.00;98053.75;5060338;28;21016;-78
2022/07/26 03:03:26;;;;;;;2.67;1.97;;;18.00;98.60;;;18.94;100.00;98057.22;5060253;28;20445;-77
2022/07/26 03:05:55;;;;;;;3.67;2.20;;;18.00;98.70;;;18.96;100.00;98059.63;5059861;28;21076;-78
2022/07/26 03:08:25;;;;;;;4.70;1.97;;;17.90;98.50;;;18.91;100.00;98055.06;5054802;28;20515;-80
2022/07/26 03:10:53;;;;;;;8.10;4.93;;;17.80;98.60;;;18.88;100.00;98054.72;5058534;28;20522;-81
2022/07/26 03:13:22;;;;;;;2.83;2.10;;;17.90;98.70;;;18.85;100.00;98063.13;5053450;28;20489;-77
2022/07/26 03:15:51;;;;;;;2.43;1.80;;;17.80;98.50;;;18.86;100.00;98062.09;5057394;28;20529;-78
2022/07/26 03:18:21;;;;;;;6.17;2.13;;;17.80;98.60;;;18.83;100.00;98057.28;5054525;28;24753;-78
2022/07/26 03:20:50;;;;;;;4.17;2.00;;;17.90;98.30;;;18.80;100.00;98055.91;5057583;28;20495;-78
2022/07/26 03:23:19;;;;;;;4.63;2.23;;;17.80;98.50;;;18.77;100.00;98051.09;5060230;28;20535;-81
2022/07/26 03:25:48;;;;;;;3.77;2.77;;;17.80;98.50;;;18.74;100.00;98053.44;5057450;28;20549;-78
2022/07/26 03:28:17;;;;;;;5.27;2.07;;;17.80;98.50;;;18.76;100.00;98064.56;5057738;28;20479;-78
2022/07/26 03:30:47;;;;;;;7.40;3.20;;;17.70;98.30;;;18.70;100.00;98070.84;5056994;28;20468;-80
2022/07/26 03:33:16;;;;;;;7.57;3.47;;;17.80;98.20;;;18.67;100.00;98066.81;5055185;28;22552;-78
2022/07/26 03:35:47;;;;;;;2.17;1.80;;;17.70;98.50;;;18.69;100.00;98063.91;5055829;28;20532;-78
2022/07/26 03:38:17;;;;;;;2.80;1.53;;;17.70;98.60;;;18.66;100.00;98064.41;5057821;28;20460;-78
2022/07/26 03:40:46;;;;;;;5.00;2.00;;;17.60;98.30;;;18.63;100.00;98070.19;5059604;28;20492;-78
2022/07/26 03:43:14;;;;;;;4.40;1.80;;;17.60;98.30;;;18.62;100.00;98057.97;5055181;28;20495;-78
2022/07/26 03:45:44;;;;;;;3.30;1.87;;;17.60;98.50;;;18.57;100.00;98072.72;5060022;28;20551;-82
2022/07/26 03:48:14;;;;;;;3.20;2.17;;;17.60;98.20;;;18.48;100.00;98066.16;5056339;28;20833;-78
2022/07/26 03:50:43;;;;;;;9.00;2.00;;;17.60;98.00;;;18.47;100.00;98072.50;5055427;28;20533;-78
2022/07/26 03:53:13;;;;;;;5.80;2.13;;;17.50;98.30;;;18.52;100.00;98072.66;5055037;28;20488;-78
2022/07/26 03:58:29;;;;;;;2.50;1.70;;;17.50;98.40;;;18.42;100.00;98068.97;5056560;28;20460;-78
2022/07/26 04:00:58;;;;;;;4.33;1.80;;;17.50;98.30;;;18.40;100.00;98069.19;5054858;28;20460;-78
2022/07/26 04:03:27;;;;;;;2.20;1.40;;;17.40;98.30;;;18.33;100.00;98068.53;5057606;28;20465;-82
2022/07/26 04:05:56;;;;;;;2.40;1.80;;;17.40;98.50;;;18.35;100.00;98070.94;5060527;28;20461;-78
2022/07/26 04:08:26;;;;;;;6.40;1.73;;;17.40;98.70;;;18.38;100.00;98067.81;5060786;28;20468;-80
2022/07/26 04:10:54;;;;;;;7.30;3.57;;;17.30;98.80;;;18.33;100.00;98065.88;5061046;28;20523;-78
2022/07/26 04:13:23;;;;;;;3.23;2.20;;;17.30;98.60;;;18.30;100.00;98074.28;5057972;28;20468;-78
2022/07/26 04:15:51;;;;;;;3.43;2.03;;;17.30;98.60;;;18.29;100.00;98072.69;5061762;28;20492;-78
2022/07/26 04:18:21;;;;;;;3.33;2.20;;;17.30;98.60;;;18.30;100.00;98074.28;5057706;28;20474;-78
2022/07/26 04:20:52;;;;;;;8.77;2.00;;;17.30;98.80;;;18.27;100.00;98072.13;5064337;28;20463;-78
2022/07/26 04:23:21;;;;;;;3.33;2.23;;;17.30;98.70;;;18.26;100.00;98067.84;5062768;28;20465;-78
2022/07/26 04:25:52;;;;;;;2.40;1.70;;;17.20;98.90;;;18.21;100.00;98067.78;5061466;28;21085;-78
2022/07/26 04:28:21;;;;;;;7.03;1.70;;;17.20;98.90;;;18.26;100.00;98075.81;5062174;28;20453;-78
2022/07/26 04:30:49;;;;;;;2.40;1.83;;;17.30;98.70;;;18.27;100.00;98076.59;5064257;28;20496;-78
2022/07/26 04:33:18;;;;;;;10.20;1.77;;;17.30;98.60;;;18.30;100.00;98068.19;5062892;28;20464;-78
2022/07/26 04:35:47;;;;;;;3.23;1.70;;;17.30;98.70;;;18.32;100.00;98074.88;5064224;28;20460;-78
2022/07/26 04:38:16;;;;;;;4.23;1.80;;;17.30;98.90;;;18.29;100.00;98083.28;5063513;28;21076;-78
2022/07/26 04:40:45;;;;;;;11.33;2.17;;;17.30;98.80;;;18.26;100.00;98089.03;5062978;28;20543;-78
2022/07/26 04:43:14;;;;;;;3.57;1.60;;;17.30;98.70;;;18.24;100.00;98088.47;5063341;28;20513;-78
2022/07/26 04:45:47;;;;;;;3.10;2.00;;;17.30;98.70;;;18.22;100.00;98090.56;5062792;28;20522;-78
2022/07/26 04:48:17;;;;;;;3.70;1.90;;;17.30;99.00;;;18.19;100.00;98085.72;5064321;28;20909;-78
2022/07/26 04:50:46;;;;;;;4.17;1.70;;;17.30;99.00;;;18.19;100.00;98083.06;5059660;28;20554;-78
2022/07/26 04:53:15;;;;;;;2.70;1.50;;;17.20;99.10;;;18.14;100.00;98082.97;5063539;28;20461;-78
2022/07/26 04:55:44;;;;;;;3.97;2.20;;;17.30;98.90;;;18.11;100.00;98078.16;5062376;28;20457;-78
2022/07/26 04:58:14;;;;;;;3.20;1.53;;;17.30;98.80;;;18.09;100.00;98074.94;5063829;28;21021;-78
2022/07/26 05:00:47;;;;;;;3.10;1.70;;;17.30;98.60;;;18.01;100.00;98072.66;5064494;28;20509;-78
2022/07/26 05:03:35;;;;;;;2.27;1.50;;;17.30;98.60;;;17.96;100.00;98075.19;5062359;28;20471;-78
2022/07/26 05:06:04;;;;;;;5.90;1.80;;;17.30;98.70;;;17.94;100.00;98078.09;5062901;28;21052;-78
2022/07/26 05:08:33;;;;;;;4.90;1.93;;;17.20;98.70;;;17.88;100.00;98086.13;5062997;28;20986;-78
2022/07/26 05:11:02;;;;;;;2.30;1.43;;;17.20;98.80;;;17.79;100.00;98084.88;5063473;28;20587;-78
2022/07/26 05:13:33;;;;;;;5.40;1.80;;;17.10;98.90;;;17.76;100.00;98080.06;5062397;28;20449;-78
2022/07/26 05:16:01;;;;;;;2.90;1.50;;;17.10;99.00;;;17.78;100.00;98081.44;5062797;28;20461;-79
2022/07/26 05:18:40;;;;;;;3.60;1.53;;;17.10;99.10;;;17.83;100.00;98091.31;5064517;28;20848;-78
2022/07/26 05:21:18;;;;;;;3.93;1.37;;;17.20;99.10;;;17.86;100.00;98088.22;5063572;28;20449;-78
2022/07/26 05:23:47;;;;;;;2.83;1.20;;;17.20;99.20;;;17.96;100.00;98099.81;5060971;28;21033;-78
2022/07/26 05:26:16;;;;;;;9.57;1.70;;;17.30;99.30;;;18.06;100.00;98093.94;5063413;28;20449;-78
2022/07/26 05:28:46;;;;;;;3.73;2.07;;;17.30;99.30;;;18.11;100.00;98096.69;5062748;28;20453;-78
2022/07/26 05:31:15;;;;;;;3.07;1.63;;;17.30;99.40;;;18.12;100.00;98087.69;5063751;28;20488;-78
2022/07/26 05:33:44;;;;;;;2.23;1.40;;;17.40;99.30;;;18.14;100.00;98092.75;5062657;28;20936;-78
2022/07/26 05:36:13;;;;;;;2.97;1.40;;;17.40;99.40;;;18.13;100.00;98086.66;5061925;28;20466;-78
2022/07/26 05:38:41;;;;;;;4.70;1.40;;;17.40;99.50;;;18.16;100.00;98091.47;5062764;28;20448;-78
2022/07/26 05:41:10;;;;;;;3.80;1.73;;;17.50;99.40;;;18.19;100.00;98085.72;5061467;28;20551;-78
2022/07/26 05:43:39;;;;;;;1.73;1.60;;;17.50;99.50;;;18.23;100.00;98081.56;5059939;28;20521;-78
2022/07/26 05:46:11;;;;;;;4.27;1.80;;;17.60;99.40;;;18.26;100.00;98081.09;5060636;28;20543;-78
2022/07/26 05:48:41;;;;;;;7.90;1.53;;;17.60;99.30;;;18.23;100.00;98075.47;5058842;28;20936;-78
2022/07/26 05:51:11;;;;;;;5.67;2.00;;;17.70;99.20;;;18.29;100.00;98085.91;5061060;28;20503;-78
2022/07/26 05:53:40;;;;;;;4.00;1.70;;;17.60;99.70;;;18.32;100.00;98080.19;5061713;28;21155;-78
2022/07/26 05:56:09;;;;;;;4.70;1.67;;;17.60;99.30;;;18.34;100.00;98091.31;5062951;28;20453;-78
2022/07/26 05:58:37;;;;;;;8.87;2.17;;;17.60;99.30;;;18.32;100.00;98090.78;5061828;28;20452;-78
2022/07/26 06:01:06;;;;;;;3.40;1.60;;;17.60;99.10;;;18.35;100.00;98098.25;5064472;28;20506;-79
2022/07/26 06:03:38;;;;;;;4.10;1.60;;;17.70;99.20;;;18.38;100.00;98096.97;5062362;28;20491;-80
2022/07/26 06:06:07;;;;;;;2.47;1.73;;;17.70;99.20;;;18.42;100.00;98093.63;5062114;28;20954;-78
2022/07/26 06:08:36;;;;;;;2.23;1.50;;;17.70;99.20;;;18.47;100.00;98098.19;5061899;28;20993;-79
2022/07/26 06:11:06;;;;;;;5.47;1.63;;;17.70;99.20;;;18.56;100.00;98089.69;5062778;28;20489;-78
2022/07/26 06:13:34;;;;;;;9.20;1.80;;;17.80;99.30;;;18.54;100.00;98094.38;5062508;28;20515;-78
2022/07/26 06:16:03;;;;;;;3.70;1.50;;;17.80;99.10;;;18.57;100.00;98098.41;5062756;28;20448;-78
2022/07/26 06:18:31;;;;;;;1.77;1.50;;;17.90;99.00;;;18.55;100.00;98096.00;5061775;28;20517;-78
2022/07/26 06:21:01;;;;;;;3.63;1.87;;;17.90;98.90;;;18.59;100.00;98093.69;5061948;28;20476;-78
2022/07/26 06:23:31;;;;;;;3.80;1.43;;;17.90;99.10;;;18.57;100.00;98101.84;5062301;28;20514;-79
2022/07/26 06:26:03;;;;;;;2.60;1.67;;;17.90;99.10;;;18.63;100.00;98088.72;5060382;28;20540;-78
2022/07/26 06:28:33;;;;;;;3.33;1.70;;;17.80;99.30;;;18.56;100.00;98094.97;5062690;28;20480;-78
2022/07/26 06:31:02;;;;;;;5.10;1.73;;;17.80;99.10;;;18.53;100.00;98092.00;5060137;28;21016;-79
2022/07/26 06:33:30;;;;;;;2.73;1.53;;;17.90;99.10;;;18.49;100.00;98096.94;5061739;28;20453;-78
2022/07/26 06:35:59;;;;;;;5.83;1.60;;;17.80;99.10;;;18.54;100.00;98097.03;5061847;28;20510;-78
2022/07/26 06:38:30;;;;;;;4.97;1.97;;;17.90;99.20;;;18.58;100.00;98092.88;5061996;28;20929;-78
2022/07/26 06:40:58;;;;;;;2.20;1.33;;;17.90;99.10;;;18.64;100.00;98103.59;5062000;28;20464;-78
2022/07/26 06:43:27;;;;;;;3.50;1.60;;;17.90;99.10;;;18.70;100.00;98100.78;5061613;28;20456;-78
2022/07/26 06:45:55;;;;;;;5.00;1.70;;;17.90;99.50;;;18.75;100.00;98105.34;5061471;28;20464;-79
2022/07/26 06:48:24;;;;;;;5.60;1.67;;;18.10;99.00;;;18.79;100.00;98106.50;5061152;28;20445;-78
2022/07/26 06:50:53;;;;;;;2.93;1.50;;;18.10;98.90;;;18.84;100.00;98106.59;5059745;28;20481;-78
2022/07/26 06:53:22;;;;;;;3.07;1.67;;;18.10;98.90;;;18.84;100.00;98101.28;5061229;28;20465;-78
2022/07/26 06:55:52;;;;;;;10.30;1.67;;;18.10;98.70;;;18.83;100.00;98100.50;5062458;28;20453;-77
2022/07/26 06:58:20;;;;;;;2.60;1.40;;;18.10;98.70;;;18.85;100.00;98105.53;5061744;28;20468;-78
2022/07/26 07:00:49;;;;;;;3.93;1.43;;;18.20;98.70;;;18.91;100.00;98099.31;5059767;28;20579;-78
2022/07/26 07:03:17;;;;;;;6.30;1.63;;;18.20;98.70;;;18.98;100.00;98094.66;5062022;28;20460;-78
2022/07/26 07:05:47;;;;;;;3.77;1.60;;;18.10;98.70;;;19.02;100.00;98095.78;5059721;28;20519;-79
2022/07/26 07:08:20;;;;;;;1.73;1.30;;;18.30;98.60;;;19.06;100.00;98102.19;5060652;28;20993;-78
2022/07/26 07:10:52;;;;;;;4.97;1.60;;;18.30;98.80;;;19.07;100.00;98101.16;5060591;28;20495;-78
2022/07/26 07:13:21;;;;;;;2.83;1.50;;;18.30;98.40;;;19.10;100.00;98096.19;5060677;28;20440;-78
2022/07/26 07:15:50;;;;;;;3.93;1.80;;;18.30;98.60;;;19.15;100.00;98092.81;5061304;28;20889;-78
2022/07/26 07:18:19;;;;;;;1.50;1.27;;;18.30;98.50;;;19.19;100.00;98093.94;5059727;28;20457;-79
2022/07/26 07:20:48;;;;;;;2.07;1.40;;;18.40;98.60;;;19.28;100.00;98100.44;5059329;28;20558;-79
2022/07/26 07:23:17;;;;;;;3.73;1.50;;;18.50;98.50;;;19.36;100.00;98096.59;5059329;28;20950;-78
2022/07/26 07:25:45;;;;;;;2.40;1.80;;;18.60;98.40;;;19.41;100.00;98100.16;5061799;28;20499;-78
2022/07/26 07:28:17;;;;;;;2.90;1.30;;;18.60;98.40;;;19.47;100.00;98098.41;5060672;28;20441;-78
2022/07/26 07:30:47;;;;;;;3.33;1.40;;;18.70;98.30;;;19.54;100.00;98102.47;5062472;28;20530;-78
2022/07/26 07:33:16;;;;;;;2.50;1.67;;;18.70;98.30;;;19.61;100.00;98098.88;5060874;28;21111;-78
2022/07/26 07:35:52;;;;;;;4.07;1.50;;;18.80;98.10;;;19.66;100.00;98096.25;5060755;28;20516;-78
2022/07/26 07:38:21;;;;;;;2.73;1.17;;;19.00;98.00;;;19.69;100.00;98095.78;5059480;28;20531;-78
2022/07/26 07:40:50;;;;;;;3.13;1.80;;;18.90;97.70;;;19.74;100.00;98094.00;5061347;28;20468;-79
2022/07/26 07:43:21;;;;;;;4.43;1.50;;;19.00;97.80;;;19.78;100.00;98099.63;5060382;28;20457;-78
2022/07/26 07:45:50;;;;;;;4.60;1.43;;;19.10;97.80;;;19.86;100.00;98099.19;5061514;28;20441;-78
2022/07/26 07:48:19;;;;;;;6.57;1.50;;;19.10;97.80;;;19.88;100.00;98095.28;5061817;28;20487;-78
2022/07/26 07:50:47;;;;;;;1.93;1.20;;;19.10;97.60;;;19.99;100.00;98101.53;5058913;28;20844;-78
2022/07/26 07:53:17;;;;;;;2.60;1.47;;;19.30;97.60;;;20.05;100.00;98089.91;5058314;28;20510;-78
2022/07/26 07:55:47;;;;;;;4.67;1.57;;;19.30;97.50;;;20.15;100.00;98081.25;5059646;28;20444;-79
2022/07/26 07:58:17;;;;;;;3.50;1.63;;;19.40;97.50;;;20.25;100.00;98090.16;5060074;28;20468;-78
2022/07/26 08:00:48;;;;;;;7.37;1.60;;;19.50;97.60;;;20.35;100.00;98094.81;5058663;28;20976;-78
2022/07/26 08:03:18;;;;;;;1.70;1.40;;;19.60;97.50;;;20.42;99.23;98093.56;5059090;28;20477;-79
2022/07/26 08:05:48;;;;;;;2.07;1.40;;;19.70;97.10;;;20.47;98.24;98088.31;5059387;28;20452;-79
2022/07/26 08:08:19;;;;;;;6.93;1.90;;;19.80;97.00;;;20.51;97.51;98085.97;5058989;28;20822;-79
2022/07/26 08:10:52;;;;;;;3.10;1.90;;;19.80;96.90;;;20.57;97.17;98087.63;5059467;28;20432;-78
2022/07/26 08:13:22;;;;;;;2.60;1.37;;;19.80;96.80;;;20.63;96.53;98085.81;5059228;28;20497;-78
2022/07/26 08:15:54;;;;;;;3.53;1.30;;;19.90;96.80;;;20.65;96.01;98083.72;5060700;28;20472;-78
2022/07/26 08:18:24;;;;;;;9.63;1.80;;;19.90;96.60;;;20.68;95.93;98088.53;5060282;28;20447;-78
2022/07/26 08:20:54;;;;;;;2.37;1.30;;;20.00;96.60;;;20.72;94.68;98085.09;5060298;28;20440;-78
2022/07/26 08:23:23;;;;;;;1.60;1.37;;;20.00;96.40;;;20.75;93.87;98081.16;5061285;28;20445;-79
2022/07/26 08:25:52;;;;;;;5.57;1.37;;;20.10;96.20;;;20.76;92.76;98093.38;5062948;28;20444;-79
2022/07/26 08:28:29;;;;;;;2.83;1.50;;;20.10;95.90;;;20.76;92.54;98104.00;5060309;28;20501;-79
2022/07/26 08:31:18;;;;;;;3.47;1.83;;;20.10;96.00;;;20.79;92.10;98093.69;5062007;28;20983;-78
2022/07/26 08:33:47;;;;;;;2.30;1.20;;;20.10;95.80;;;20.74;91.66;98100.81;5059523;28;20476;-78
2022/07/26 08:36:17;;;;;;;3.10;1.70;;;20.10;95.70;;;20.69;91.81;98108.75;5060265;28;20448;-79
2022/07/26 08:38:46;;;;;;;2.87;1.57;;;20.00;95.80;;;20.71;92.03;98098.66;5061744;28;20499;-78
2022/07/26 08:41:17;;;;;;;6.63;1.50;;;20.10;95.80;;;20.76;92.33;98106.66;5061011;28;20444;-79
2022/07/26 08:43:46;;;;;;;9.97;1.30;;;20.10;96.10;;;20.77;93.22;98106.44;5061481;28;20957;-78
2022/07/26 08:46:23;;;;;;;2.20;1.50;;;20.20;96.10;;;20.77;92.37;98110.94;5061639;28;20449;-79
2022/07/26 08:48:55;;;;;;;2.00;1.43;;;20.20;95.90;;;20.78;90.29;98116.03;5060575;28;20467;-79
2022/07/26 08:51:26;;;;;;;3.93;1.70;;;20.20;95.50;;;20.78;90.62;98108.06;5064732;28;20534;-78
2022/07/26 08:54:02;;;;;;;2.20;1.40;;;20.20;95.60;;;20.85;90.45;98116.63;5063770;28;20447;-78
2022/07/26 08:56:36;;;;;;;5.57;1.77;;;20.20;95.60;;;20.91;88.87;98125.44;5062613;28;20440;-78
2022/07/26 08:59:06;;;;;;;3.93;1.40;;;20.20;95.20;;;20.95;87.49;98132.69;5064869;28;20433;-79
2022/07/26 09:01:55;;;;;;;2.33;1.30;;;20.30;95.00;;;21.01;86.41;98125.53;5063463;28;20452;-78
2022/07/26 09:04:26;;;;;;;4.33;1.53;;;20.30;94.90;;;21.04;86.11;98133.81;5062208;28;20463;-78
2022/07/26 09:07:04;;;;;;;1.67;1.30;;;20.30;94.80;;;21.07;85.96;98137.81;5062805;28;20452;-78
2022/07/26 09:09:35;;;;;;;1.60;1.30;;;20.40;94.70;;;21.09;86.69;98138.38;5063097;28;20468;-78
2022/07/26 09:12:21;;;;;;;1.80;1.30;;;20.40;94.80;;;21.06;86.10;98139.72;5062943;28;20491;-79
2022/07/26 09:14:50;;;;;;;6.40;1.40;;;20.40;94.60;;;21.03;86.70;98145.50;5062664;28;20511;-78
2022/07/26 09:17:24;;;;;;;5.43;1.70;;;20.50;94.80;;;21.08;86.51;98142.09;5061833;28;20534;-78
2022/07/26 09:20:08;;;;;;;2.60;1.63;;;20.40;94.80;;;21.04;85.68;98149.78;5059243;28;20448;-79
2022/07/26 09:22:55;;;;;;;7.63;1.50;;;20.40;94.50;;;21.06;85.71;98144.22;5060843;28;20447;-79
2022/07/26 09:25:26;;;;;;;3.70;1.53;;;20.40;94.80;;;21.14;85.69;98146.44;5059508;28;20511;-79
2022/07/26 09:27:55;;;;;;;6.80;1.60;;;20.50;94.70;;;21.16;84.92;98144.34;5060205;28;20441;-78
2022/07/26 09:30:24;;;;;;;7.40;1.60;;;20.50;94.50;;;21.18;84.98;98144.88;5060535;28;20457;-78
2022/07/26 09:33:04;;;;;;;2.70;1.20;;;20.60;94.50;;;21.25;85.50;98150.00;5061374;28;21079;-79
2022/07/26 09:35:37;;;;;;;3.67;1.57;;;20.50;94.60;;;21.33;84.18;98142.38;5061824;28;20903;-78
2022/07/26 09:38:19;;;;;;;2.60;1.30;;;20.70;94.40;;;21.37;83.95;98154.09;5063871;28;20512;-79
2022/07/26 09:40:48;;;;;;;1.73;1.00;;;20.70;94.30;;;21.47;84.45;98143.53;5063729;28;20808;-79
2022/07/26 09:43:19;;;;;;;2.20;1.37;;;20.80;94.60;;;21.52;82.84;98143.56;5061611;28;20483;-78
2022/07/26 09:46:05;;;;;;;2.77;1.40;;;20.80;94.20;;;21.51;81.49;98146.50;5063204;28;20441;-78
2022/07/26 09:48:38;;;;;;;4.00;1.50;;;20.90;93.80;;;21.50;82.15;98151.00;5064968;28;20515;-79
2022/07/26 09:51:38;;;;;;;1.87;1.03;;;20.90;93.90;;;21.45;82.32;98153.63;5062604;28;20910;-78
2022/07/26 09:54:07;;;;;;;2.10;1.30;;;20.90;93.90;;;21.45;82.17;98158.94;5063342;28;20514;-79
2022/07/26 09:56:46;;;;;;;7.27;1.50;;;20.80;93.80;;;21.46;81.40;98160.56;5063590;28;20451;-79
2022/07/26 09:59:17;;;;;;;2.23;1.67;;;20.90;93.70;;;21.49;81.58;98160.03;5063270;28;20470;-78
2022/07/26 10:01:47;;;;;;;5.53;1.60;;;20.90;93.70;;;21.59;81.16;98184.09;5061860;28;20814;-78
2022/07/26 10:04:18;;;;;;;2.40;1.30;;;21.00;93.70;;;21.51;80.95;98168.59;5062184;28;20818;-79
2022/07/26 10:06:47;;;;;;;4.17;2.33;;;20.90;93.60;;;21.51;80.77;98179.25;5064191;28;20564;-79
2022/07/26 10:09:18;;;;;;;10.23;1.50;;;20.90;93.70;;;21.48;80.64;98168.31;5062550;28;20472;-79
2022/07/26 10:11:56;;;;;;;8.53;1.93;;;20.90;93.70;;;21.54;81.89;98183.25;5061395;28;20850;-79
2022/07/26 10:14:53;;;;;;;1.60;1.10;;;20.90;93.90;;;21.56;81.71;98184.59;5063149;28;20452;-79
2022/07/26 10:17:46;;;;;;;6.90;1.37;;;20.90;93.80;;;21.62;80.89;98172.16;5061941;28;20498;-79
2022/07/26 10:20:48;;;;;;;1.63;1.23;;;21.00;93.80;;;21.61;79.89;98188.34;5062722;28;20482;-78
2022/07/26 10:23:42;;;;;;;3.37;1.27;;;21.00;93.50;;;21.63;80.79;98170.25;5061214;28;20851;-78
2022/07/26 10:26:39;;;;;;;3.53;1.33;;;21.10;93.70;;;21.68;80.59;98184.44;5061057;28;20953;-78
2022/07/26 10:29:28;;;;;;;2.43;1.43;;;21.00;93.70;;;21.60;79.78;98176.91;5062974;28;20911;-79
2022/07/26 10:32:21;;;;;;;2.97;1.30;;;20.90;93.50;;;21.64;80.19;98179.84;5060827;28;20472;-79
2022/07/26 10:34:50;;;;;;;3.07;1.70;;;21.00;93.50;;;21.72;80.34;98179.41;5046051;28;20461;-78
2022/07/26 10:37:28;;;;;;;3.23;1.63;;;21.00;93.70;;;21.75;80.14;98177.03;5061607;28;20834;-79
2022/07/26 10:40:21;;;;;;;1.67;1.30;;;21.10;93.60;;;21.72;78.96;98174.88;5056820;28;20448;-78